createdAt,value
2018-12-25T00:01:48.557Z,13.70
2018-12-25T00:04:16.713Z,13.80
2018-12-25T00:06:44.925Z,13.30
2018-12-25T00:09:13.045Z,13.40
2018-12-25T00:11:41.266Z,13.30
2018-12-25T00:14:09.397Z,13.10
2018-12-25T00:16:37.596Z,13.00
2018-12-25T00:19:06.530Z,13.00
2018-12-25T00:21:34.660Z,13.00
2018-12-25T00:24:02.817Z,13.00
2018-12-25T00:26:32.980Z,13.30
2018-12-25T00:29:04.025Z,13.30
2018-12-25T00:31:32.208Z,13.00
2018-12-25T00:34:00.348Z,13.10
2018-12-25T00:36:28.724Z,13.00
2018-12-25T00:38:56.909Z,13.00
2018-12-25T00:41:25.088Z,13.00
2018-12-25T00:43:53.230Z,12.90
2018-12-25T00:46:21.482Z,12.90
2018-12-25T00:48:49.629Z,12.80
2018-12-25T00:51:17.765Z,12.80
2018-12-25T00:53:45.941Z,12.70
2018-12-25T00:56:14.349Z,13.00
2018-12-25T00:58:42.532Z,12.70
2018-12-25T01:01:10.770Z,12.50
2018-12-25T01:03:39.802Z,12.50
2018-12-25T01:06:07.998Z,12.60
2018-12-25T01:08:36.106Z,12.60
2018-12-25T01:11:04.289Z,12.70
2018-12-25T01:13:32.405Z,12.70
2018-12-25T01:16:00.685Z,12.70
2018-12-25T01:18:28.929Z,12.70
2018-12-25T01:20:57.177Z,12.80
2018-12-25T01:23:25.397Z,12.70
2018-12-25T01:25:54.494Z,12.80
2018-12-25T01:28:22.760Z,13.20
2018-12-25T01:30:51.813Z,12.80
2018-12-25T01:33:20.137Z,12.60
2018-12-25T01:35:48.695Z,12.80
2018-12-25T01:38:16.979Z,12.60
2018-12-25T01:40:45.226Z,13.00
2018-12-25T01:43:13.524Z,13.10
2018-12-25T01:45:41.749Z,12.70
2018-12-25T01:48:10.028Z,12.60
2018-12-25T01:50:38.244Z,12.60
2018-12-25T01:53:06.942Z,12.60
2018-12-25T01:55:35.169Z,12.60
2018-12-25T01:58:03.266Z,12.30
2018-12-25T02:00:31.481Z,12.50
2018-12-25T02:02:59.648Z,12.20
2018-12-25T02:05:27.876Z,12.50
2018-12-25T02:07:56.042Z,12.20
2018-12-25T02:10:24.252Z,12.40
2018-12-25T02:12:52.580Z,12.40
2018-12-25T02:15:20.759Z,12.40
2018-12-25T02:17:48.904Z,12.30
2018-12-25T02:20:17.170Z,12.10
2018-12-25T02:22:45.483Z,12.30
2018-12-25T02:25:13.714Z,12.40
2018-12-25T02:27:41.868Z,11.90
2018-12-25T02:30:09.996Z,12.00
2018-12-25T02:32:38.476Z,12.10
2018-12-25T02:35:06.757Z,12.00
2018-12-25T02:37:34.984Z,12.10
2018-12-25T02:40:03.436Z,12.00
2018-12-25T02:42:31.531Z,11.80
2018-12-25T02:44:59.746Z,11.80
2018-12-25T02:47:28.150Z,12.00
2018-12-25T02:49:56.289Z,11.90
2018-12-25T02:52:24.463Z,11.70
2018-12-25T02:54:52.581Z,11.80
2018-12-25T02:57:20.724Z,11.80
2018-12-25T02:59:48.873Z,11.90
2018-12-25T03:02:17.015Z,12.00
2018-12-25T03:04:45.285Z,11.70
2018-12-25T03:07:13.512Z,11.60
2018-12-25T03:09:42.184Z,11.70
2018-12-25T03:12:10.400Z,11.80
2018-12-25T03:14:38.601Z,11.70
2018-12-25T03:17:06.790Z,11.60
2018-12-25T03:19:35.025Z,11.50
2018-12-25T03:22:04.046Z,11.40
2018-12-25T03:24:32.221Z,11.50
2018-12-25T03:27:00.356Z,11.60
2018-12-25T03:29:28.584Z,11.40
2018-12-25T03:31:56.749Z,11.50
2018-12-25T03:34:24.960Z,11.50
2018-12-25T03:36:53.211Z,11.50
2018-12-25T03:39:21.439Z,11.30
2018-12-25T03:41:49.889Z,11.20
2018-12-25T03:44:18.049Z,11.30
2018-12-25T03:46:46.325Z,11.40
2018-12-25T03:49:14.422Z,11.20
2018-12-25T03:51:43.637Z,11.40
2018-12-25T03:54:11.819Z,11.50
2018-12-25T03:56:40.061Z,11.20
2018-12-25T03:59:08.260Z,11.30
2018-12-25T04:01:36.392Z,11.40
2018-12-25T04:04:04.530Z,11.20
2018-12-25T04:06:32.745Z,11.20
2018-12-25T04:09:00.850Z,11.30
2018-12-25T04:11:29.065Z,11.10
2018-12-25T04:13:57.148Z,11.40
2018-12-25T04:16:25.661Z,11.20
2018-12-25T04:18:53.840Z,11.20
2018-12-25T04:21:21.999Z,11.10
2018-12-25T04:23:50.101Z,11.10
2018-12-25T04:26:18.535Z,11.20
2018-12-25T04:28:47.049Z,11.00
2018-12-25T04:31:15.292Z,10.90
2018-12-25T04:33:43.364Z,11.10
2018-12-25T04:36:11.585Z,10.80
2018-12-25T04:38:40.077Z,11.10
2018-12-25T04:41:08.348Z,11.00
2018-12-25T04:43:36.530Z,10.90
2018-12-25T04:46:04.737Z,10.80
2018-12-25T04:48:32.823Z,11.10
2018-12-25T04:51:01.044Z,10.80
2018-12-25T04:53:30.450Z,11.10
2018-12-25T04:55:58.716Z,10.90
2018-12-25T04:58:27.521Z,10.90
2018-12-25T05:00:55.714Z,11.00
2018-12-25T05:03:23.898Z,11.20
2018-12-25T05:05:52.193Z,10.90
2018-12-25T05:08:20.530Z,10.80
2018-12-25T05:10:48.753Z,10.90
2018-12-25T05:13:17.343Z,10.90
2018-12-25T05:15:45.509Z,10.80
2018-12-25T05:18:13.641Z,10.90
2018-12-25T05:20:41.685Z,10.90
2018-12-25T05:23:09.815Z,10.70
2018-12-25T05:25:37.827Z,10.90
2018-12-25T05:28:05.954Z,11.00
2018-12-25T05:30:34.000Z,10.90
2018-12-25T05:33:02.092Z,11.00
2018-12-25T05:35:30.174Z,10.70
2018-12-25T05:37:58.368Z,11.00
2018-12-25T05:40:26.782Z,10.80
2018-12-25T05:42:54.923Z,10.60
2018-12-25T05:45:24.042Z,10.80
2018-12-25T05:47:52.175Z,10.80
2018-12-25T05:50:20.273Z,10.70
2018-12-25T05:52:48.689Z,10.80
2018-12-25T05:55:16.824Z,10.70
2018-12-25T05:57:44.833Z,10.70
2018-12-25T06:00:13.030Z,10.80
2018-12-25T06:02:41.165Z,10.80
2018-12-25T06:05:09.267Z,10.70
2018-12-25T06:07:37.349Z,10.80
2018-12-25T06:10:05.481Z,10.50
2018-12-25T06:12:34.176Z,10.80
2018-12-25T06:15:02.321Z,10.70
2018-12-25T06:17:31.216Z,10.90
2018-12-25T06:19:59.309Z,11.00
2018-12-25T06:22:27.390Z,10.90
2018-12-25T06:24:55.486Z,10.90
2018-12-25T06:27:23.555Z,10.70
2018-12-25T06:29:51.968Z,10.90
2018-12-25T06:32:19.993Z,10.70
2018-12-25T06:34:48.132Z,10.70
2018-12-25T06:37:16.141Z,10.80
2018-12-25T06:39:44.329Z,10.60
2018-12-25T06:42:12.343Z,10.70
2018-12-25T06:44:40.469Z,11.10
2018-12-25T06:47:08.562Z,11.40
2018-12-25T06:49:36.699Z,11.20
2018-12-25T06:52:04.844Z,10.80
2018-12-25T06:54:33.049Z,10.80
2018-12-25T06:57:01.219Z,10.90
2018-12-25T06:59:29.737Z,11.20
2018-12-25T07:01:57.829Z,11.00
2018-12-25T07:04:27.036Z,11.10
2018-12-25T07:06:55.197Z,10.80
2018-12-25T07:09:23.643Z,10.90
2018-12-25T07:11:51.885Z,11.20
2018-12-25T07:14:20.062Z,11.00
2018-12-25T07:16:48.316Z,10.90
2018-12-25T07:19:16.569Z,10.90
2018-12-25T07:21:44.797Z,11.00
2018-12-25T07:24:12.931Z,11.00
2018-12-25T07:26:41.173Z,11.20
2018-12-25T07:29:09.373Z,11.20
2018-12-25T07:31:37.908Z,11.00
2018-12-25T07:34:06.162Z,11.40
2018-12-25T07:36:34.709Z,11.20
2018-12-25T07:39:03.987Z,11.40
2018-12-25T07:41:33.069Z,12.30
2018-12-25T07:44:01.296Z,13.80
2018-12-25T07:46:29.537Z,14.70
2018-12-25T07:48:57.845Z,16.30
2018-12-25T07:51:26.354Z,17.30
2018-12-25T07:53:54.430Z,16.90
2018-12-25T07:56:22.586Z,15.60
2018-12-25T07:58:50.759Z,18.50
2018-12-25T08:01:19.047Z,16.80
2018-12-25T08:03:50.084Z,19.60
2018-12-25T08:06:18.346Z,19.90
2018-12-25T08:08:46.515Z,21.80
2018-12-25T08:11:14.656Z,21.20
2018-12-25T08:13:42.894Z,19.60
2018-12-25T08:16:11.027Z,19.00
2018-12-25T08:18:40.220Z,18.90
2018-12-25T08:21:08.412Z,18.30
2018-12-25T08:23:36.868Z,17.30
2018-12-25T08:26:05.084Z,17.10
2018-12-25T08:28:33.272Z,19.10
2018-12-25T08:31:02.253Z,17.40
2018-12-25T08:33:30.387Z,17.80
2018-12-25T08:35:58.564Z,18.50
2018-12-25T08:38:26.797Z,19.00
2018-12-25T08:40:55.040Z,18.10
2018-12-25T08:43:23.276Z,16.40
2018-12-25T08:45:51.564Z,17.80
2018-12-25T08:48:20.662Z,15.50
2018-12-25T08:50:48.992Z,13.90
2018-12-25T08:53:19.389Z,14.00
2018-12-25T08:55:47.748Z,13.90
2018-12-25T08:58:15.989Z,13.50
2018-12-25T09:00:44.128Z,14.20
2018-12-25T09:03:12.362Z,15.00
2018-12-25T09:05:40.580Z,15.30
2018-12-25T09:08:09.269Z,15.30
2018-12-25T09:10:37.509Z,14.40
2018-12-25T09:13:06.701Z,13.90
2018-12-25T09:15:35.669Z,13.60
2018-12-25T09:18:03.896Z,13.60
2018-12-25T09:20:31.989Z,13.90
2018-12-25T09:23:00.311Z,13.40
2018-12-25T09:25:28.433Z,13.00
2018-12-25T09:27:56.690Z,13.30
2018-12-25T09:30:24.870Z,13.80
2018-12-25T09:32:53.140Z,13.40
2018-12-25T09:35:21.469Z,13.90
2018-12-25T09:37:49.875Z,13.90
2018-12-25T09:40:18.077Z,13.80
2018-12-25T09:42:46.254Z,13.60
2018-12-25T09:45:14.624Z,14.60
2018-12-25T09:47:43.076Z,15.00
2018-12-25T09:50:11.736Z,13.40
2018-12-25T09:52:39.940Z,13.90
2018-12-25T09:55:08.197Z,14.00
2018-12-25T09:57:36.500Z,13.80
2018-12-25T10:00:05.187Z,13.70
2018-12-25T10:02:34.020Z,14.00
2018-12-25T10:05:02.230Z,14.00
2018-12-25T10:07:30.422Z,14.30
2018-12-25T10:09:58.684Z,14.00
2018-12-25T10:12:27.310Z,14.40
2018-12-25T10:14:55.930Z,14.30
2018-12-25T10:17:24.084Z,14.30
2018-12-25T10:19:52.428Z,13.80
2018-12-25T10:22:20.694Z,14.10
2018-12-25T10:24:49.068Z,14.10
2018-12-25T10:27:17.247Z,13.90
2018-12-25T10:29:45.758Z,14.70
2018-12-25T10:32:13.982Z,14.20
2018-12-25T10:34:42.269Z,13.90
2018-12-25T10:37:10.860Z,14.00
2018-12-25T10:39:39.093Z,13.40
2018-12-25T10:42:08.302Z,13.40
2018-12-25T10:44:36.600Z,13.50
2018-12-25T10:47:04.957Z,14.10
2018-12-25T10:49:33.248Z,13.90
2018-12-25T10:52:01.513Z,13.50
2018-12-25T10:54:29.768Z,13.60
2018-12-25T10:56:57.895Z,13.40
2018-12-25T10:59:26.877Z,13.30
2018-12-25T11:01:55.100Z,13.90
2018-12-25T11:04:23.280Z,13.90
2018-12-25T11:06:53.521Z,14.20
2018-12-25T11:09:21.888Z,14.20
2018-12-25T11:11:50.883Z,14.20
2018-12-25T11:14:19.035Z,14.60
2018-12-25T11:16:47.152Z,14.90
2018-12-25T11:19:15.316Z,15.00
2018-12-25T11:21:44.420Z,14.20
2018-12-25T11:24:12.871Z,15.00
2018-12-25T11:26:41.179Z,15.00
2018-12-25T11:29:09.416Z,14.40
2018-12-25T11:31:37.677Z,14.50
2018-12-25T11:34:05.895Z,14.60
2018-12-25T11:36:34.075Z,14.20
2018-12-25T11:39:04.188Z,14.00
2018-12-25T11:41:32.333Z,14.10
2018-12-25T11:44:00.626Z,14.20
2018-12-25T11:46:28.923Z,14.00
2018-12-25T11:48:56.949Z,13.40
2018-12-25T11:51:25.262Z,13.20
2018-12-25T11:53:53.431Z,13.30
2018-12-25T11:56:21.710Z,13.80
2018-12-25T11:58:49.933Z,13.90
2018-12-25T12:01:18.045Z,13.70
2018-12-25T12:03:46.213Z,13.50
2018-12-25T12:06:14.492Z,13.70
2018-12-25T12:08:42.732Z,13.60
2018-12-25T12:11:10.803Z,13.80
2018-12-25T12:13:39.033Z,13.90
2018-12-25T12:16:07.160Z,13.90
2018-12-25T12:18:35.370Z,14.00
2018-12-25T12:21:04.046Z,13.80
2018-12-25T12:23:32.212Z,14.00
2018-12-25T12:26:02.268Z,14.00
2018-12-25T12:28:30.841Z,14.00
2018-12-25T12:30:59.012Z,14.30
2018-12-25T12:33:27.226Z,14.50
2018-12-25T12:35:55.372Z,15.00
2018-12-25T12:38:23.567Z,14.50
2018-12-25T12:40:51.712Z,14.60
2018-12-25T12:43:19.873Z,14.40
2018-12-25T12:45:48.084Z,13.90
2018-12-25T12:48:16.181Z,14.30
2018-12-25T12:50:44.782Z,14.50
2018-12-25T12:53:12.915Z,14.50
2018-12-25T12:55:41.227Z,14.70
2018-12-25T12:58:09.533Z,14.90
2018-12-25T13:00:37.730Z,14.70
2018-12-25T13:03:06.120Z,14.50
2018-12-25T13:05:34.575Z,13.80
2018-12-25T13:08:03.059Z,14.10
2018-12-25T13:10:31.251Z,14.10
2018-12-25T13:12:59.530Z,14.40
2018-12-25T13:15:30.188Z,13.90
2018-12-25T13:17:58.993Z,14.00
2018-12-25T13:20:28.273Z,14.20
2018-12-25T13:23:00.277Z,14.20
2018-12-25T13:25:31.091Z,14.20
2018-12-25T13:28:03.641Z,13.70
2018-12-25T13:30:35.410Z,14.60
2018-12-25T13:33:08.922Z,14.60
2018-12-25T13:35:37.405Z,14.80
2018-12-25T13:38:05.866Z,14.20
2018-12-25T13:40:34.147Z,13.90
2018-12-25T13:43:02.315Z,13.60
2018-12-25T13:45:30.619Z,13.80
2018-12-25T13:47:58.884Z,13.60
2018-12-25T13:50:27.270Z,13.80
2018-12-25T13:53:02.566Z,14.00
2018-12-25T13:55:25.435Z,13.60
2018-12-25T13:57:54.028Z,14.00
2018-12-25T14:00:22.197Z,13.70
2018-12-25T14:02:51.361Z,13.90
2018-12-25T14:05:19.561Z,13.70
2018-12-25T14:07:47.660Z,13.90
2018-12-25T14:10:15.949Z,14.10
2018-12-25T14:12:45.448Z,14.10
2018-12-25T14:15:13.635Z,14.30
2018-12-25T14:17:41.830Z,13.90
2018-12-25T14:20:10.011Z,13.60
2018-12-25T14:22:38.170Z,13.80
2018-12-25T14:25:06.532Z,13.70
2018-12-25T14:27:37.460Z,13.70
2018-12-25T14:30:06.940Z,13.70
2018-12-25T14:32:35.161Z,13.70
2018-12-25T14:35:03.481Z,13.40
2018-12-25T14:37:31.904Z,13.40
2018-12-25T14:40:00.283Z,13.10
2018-12-25T14:42:28.533Z,13.50
2018-12-25T14:44:56.828Z,13.20
2018-12-25T14:47:25.092Z,13.20
2018-12-25T14:49:53.330Z,13.20
2018-12-25T14:52:21.570Z,13.10
2018-12-25T14:54:49.731Z,13.10
2018-12-25T14:57:18.266Z,13.10
2018-12-25T14:59:46.561Z,13.50
2018-12-25T15:02:14.762Z,13.20
2018-12-25T15:04:44.007Z,13.20
2018-12-25T15:07:12.377Z,13.20
2018-12-25T15:09:40.600Z,13.10
2018-12-25T15:12:08.819Z,13.10
2018-12-25T15:14:36.923Z,12.70
2018-12-25T15:17:05.218Z,12.80
2018-12-25T15:19:33.402Z,12.90
2018-12-25T15:22:02.288Z,12.60
2018-12-25T15:24:30.493Z,12.70
2018-12-25T15:26:58.918Z,12.90
2018-12-25T15:29:27.034Z,13.00
2018-12-25T15:31:55.277Z,12.60
2018-12-25T15:34:23.472Z,12.30
2018-12-25T15:36:52.633Z,12.50
2018-12-25T15:39:21.050Z,12.50
2018-12-25T15:42:45.946Z,12.40
2018-12-25T15:46:09.134Z,12.60
2018-12-25T15:48:37.380Z,12.60
2018-12-25T15:51:05.666Z,12.20
2018-12-25T15:53:37.125Z,12.30
2018-12-25T15:56:03.958Z,12.10
2018-12-25T15:58:32.331Z,12.10
2018-12-25T16:01:00.579Z,12.50
2018-12-25T16:03:28.754Z,12.50
2018-12-25T16:05:57.028Z,12.70
2018-12-25T16:08:25.641Z,12.30
2018-12-25T16:10:56.977Z,12.40
2018-12-25T16:13:26.132Z,12.30
2018-12-25T16:15:54.611Z,12.30
2018-12-25T16:18:25.554Z,12.70
2018-12-25T16:20:53.834Z,12.40
2018-12-25T16:24:07.053Z,12.60
2018-12-25T16:26:35.227Z,12.40
2018-12-25T16:29:03.287Z,12.20
2018-12-25T16:31:31.441Z,12.70
2018-12-25T16:33:59.918Z,12.00
2018-12-25T16:36:28.955Z,11.90
2018-12-25T16:39:10.796Z,11.90
2018-12-25T16:41:39.287Z,12.30
2018-12-25T16:44:08.434Z,11.80
2018-12-25T16:46:36.617Z,11.80
2018-12-25T16:49:04.693Z,12.00
2018-12-25T16:51:32.907Z,12.30
2018-12-25T16:54:00.949Z,12.50
2018-12-25T16:56:29.040Z,12.50
2018-12-25T16:58:57.197Z,12.30
2018-12-25T17:01:26.234Z,12.20
2018-12-25T17:03:54.600Z,12.20
2018-12-25T17:06:22.763Z,12.50
2018-12-25T17:08:50.928Z,12.70
2018-12-25T17:11:19.085Z,12.60
2018-12-25T17:13:47.745Z,12.50
2018-12-25T17:16:15.863Z,12.50
2018-12-25T17:18:44.084Z,12.50
2018-12-25T17:21:12.166Z,12.40
2018-12-25T17:23:40.388Z,12.00
2018-12-25T17:26:08.509Z,11.70
2018-12-25T17:28:36.701Z,11.60
2018-12-25T17:31:04.953Z,11.60
2018-12-25T17:33:33.172Z,11.70
2018-12-25T17:36:01.415Z,12.00
2018-12-25T17:38:29.641Z,12.00
2018-12-25T17:40:57.730Z,12.10
2018-12-25T17:43:25.919Z,11.80
2018-12-25T17:45:54.112Z,11.80
2018-12-25T17:48:22.405Z,11.40
2018-12-25T17:50:50.913Z,12.20
2018-12-25T17:53:19.149Z,12.20
2018-12-25T17:55:47.353Z,12.40
2018-12-25T17:58:15.890Z,11.70
2018-12-25T18:00:44.151Z,11.70
2018-12-25T18:03:13.100Z,11.60
2018-12-25T18:05:41.348Z,11.40
2018-12-25T18:08:09.547Z,11.30
2018-12-25T18:10:39.067Z,11.70
2018-12-25T18:13:07.204Z,11.90
2018-12-25T18:15:36.405Z,12.00
2018-12-25T18:18:04.689Z,11.60
2018-12-25T18:20:41.108Z,11.30
2018-12-25T18:23:09.357Z,11.20
2018-12-25T18:25:37.469Z,10.90
2018-12-25T18:28:05.701Z,11.40
2018-12-25T18:30:33.810Z,10.90
2018-12-25T18:33:02.303Z,11.00
2018-12-25T18:35:30.470Z,10.90
2018-12-25T18:37:58.679Z,10.70
2018-12-25T18:40:26.790Z,10.80
2018-12-25T18:42:55.032Z,10.90
2018-12-25T18:45:23.086Z,10.90
2018-12-25T18:47:51.231Z,11.00
2018-12-25T18:50:19.476Z,11.40
2018-12-25T18:52:47.643Z,11.30
2018-12-25T18:55:15.952Z,11.60
2018-12-25T18:57:44.033Z,11.30
2018-12-25T19:00:12.196Z,11.30
2018-12-25T19:02:41.227Z,11.20
2018-12-25T19:05:09.465Z,11.00
2018-12-25T19:07:37.761Z,11.20
2018-12-25T19:10:08.518Z,11.30
2018-12-25T19:12:36.756Z,11.10
2018-12-25T19:15:24.827Z,11.10
2018-12-25T19:17:55.041Z,11.20
2018-12-25T19:20:23.189Z,11.20
2018-12-25T19:22:52.264Z,11.20
2018-12-25T19:25:20.493Z,11.30
2018-12-25T19:27:48.641Z,11.40
2018-12-25T19:30:18.078Z,11.30
2018-12-25T19:32:46.180Z,11.30
2018-12-25T19:35:14.432Z,11.40
2018-12-25T19:37:42.548Z,11.20
2018-12-25T19:40:11.369Z,11.30
2018-12-25T19:42:39.917Z,11.20
2018-12-25T19:45:08.100Z,11.20
2018-12-25T19:47:36.344Z,11.00
2018-12-25T19:50:04.790Z,10.80
2018-12-25T19:52:32.951Z,10.80
2018-12-25T19:55:03.436Z,10.70
2018-12-25T19:57:32.071Z,10.70
2018-12-25T20:00:01.041Z,10.80
2018-12-25T20:02:29.812Z,10.70
2018-12-25T20:05:42.971Z,10.70
2018-12-25T20:08:54.433Z,10.70
2018-12-25T20:12:11.113Z,10.60
2018-12-25T20:15:26.997Z,10.80
2018-12-25T20:18:42.619Z,11.40
2018-12-25T20:21:42.439Z,11.00
2018-12-25T20:24:55.910Z,10.60
2018-12-25T20:28:20.709Z,10.50
2018-12-25T20:31:28.305Z,10.60
2018-12-25T20:34:52.224Z,10.90
2018-12-25T20:38:10.497Z,11.30
2018-12-25T20:41:09.029Z,11.40
2018-12-25T20:44:06.757Z,11.10
2018-12-25T20:47:15.541Z,10.80
2018-12-25T20:50:37.285Z,10.90
2018-12-25T20:53:48.861Z,10.80
2018-12-25T20:57:07.589Z,10.30
2018-12-25T21:00:10.928Z,10.60
2018-12-25T21:03:42.461Z,10.50
2018-12-25T21:06:53.736Z,10.30
2018-12-25T21:10:12.710Z,10.30
2018-12-25T21:13:19.112Z,10.80
2018-12-25T21:16:24.097Z,10.50
2018-12-25T21:19:30.822Z,10.40
2018-12-25T21:22:48.389Z,10.70
2018-12-25T21:25:52.398Z,10.20
2018-12-25T21:28:19.365Z,10.70
2018-12-25T21:30:47.752Z,10.30
2018-12-25T21:33:16.049Z,10.60
2018-12-25T21:35:44.325Z,10.40
2018-12-25T21:38:12.626Z,10.80
2018-12-25T21:40:40.942Z,10.90
2018-12-25T21:43:13.630Z,10.90
2018-12-25T21:45:43.893Z,10.10
2018-12-25T21:48:12.160Z,10.40
2018-12-25T21:50:40.360Z,10.40
2018-12-25T21:53:09.743Z,10.40
2018-12-25T21:55:38.959Z,10.60
2018-12-25T21:58:07.824Z,10.80
2018-12-25T22:00:36.213Z,10.70
2018-12-25T22:03:04.555Z,10.60
2018-12-25T22:05:32.727Z,10.70
2018-12-25T22:08:00.969Z,10.70
2018-12-25T22:10:29.084Z,10.60
2018-12-25T22:12:57.345Z,10.90
2018-12-25T22:15:25.516Z,10.90
2018-12-25T22:17:53.818Z,10.70
2018-12-25T22:20:25.261Z,10.70
2018-12-25T22:22:53.492Z,10.60
2018-12-25T22:25:27.095Z,10.50
2018-12-25T22:27:51.965Z,10.50
2018-12-25T22:30:20.191Z,10.40
2018-12-25T22:32:48.295Z,10.00
2018-12-25T22:35:16.381Z,10.30
2018-12-25T22:37:44.596Z,10.30
2018-12-25T22:40:13.042Z,10.30
2018-12-25T22:42:41.209Z,10.30
2018-12-25T22:45:09.391Z,10.70
2018-12-25T22:47:37.860Z,10.60
2018-12-25T22:50:06.241Z,10.60
2018-12-25T22:52:34.412Z,10.40
2018-12-25T22:55:02.585Z,10.40
2018-12-25T22:57:30.840Z,10.40
2018-12-25T22:59:58.987Z,10.80
2018-12-25T23:02:27.140Z,10.50
2018-12-25T23:04:55.284Z,10.60
2018-12-25T23:07:23.813Z,11.20
2018-12-25T23:09:51.911Z,10.70
2018-12-25T23:12:20.049Z,11.10
2018-12-25T23:14:48.268Z,11.10
2018-12-25T23:17:16.393Z,11.10
2018-12-25T23:19:44.613Z,10.50
2018-12-25T23:22:12.749Z,10.10
2018-12-25T23:24:40.906Z,10.30
2018-12-25T23:27:09.086Z,10.00
2018-12-25T23:29:39.792Z,9.40
2018-12-25T23:32:07.984Z,9.60
2018-12-25T23:34:36.129Z,9.80
2018-12-25T23:37:05.429Z,9.40
2018-12-25T23:39:33.571Z,9.00
2018-12-25T23:42:01.780Z,9.50
2018-12-25T23:44:30.690Z,9.80
2018-12-25T23:46:58.906Z,9.30
2018-12-25T23:49:27.066Z,9.40
2018-12-25T23:51:55.262Z,9.30
2018-12-25T23:54:23.425Z,9.80
2018-12-25T23:56:51.578Z,9.50
2018-12-25T23:59:19.710Z,9.30
